Time;durP1;ratioP1;P1;durP2;ratioP2;P2;SDS_P1;SDS_P2;PMS_P1;PMS_P2;Temp;Humidity;BMP_temperature;BMP_pressure;BME280_temperature;BME280_humidity;BME280_pressure;Samples;Min_cycle;Max_cycle;Signal;HPM_P1;HPM_P2
2021/09/05 00:03:23;;;;;;;0.00;0.00;;;;;;;;;;10393044;28;20270;-69
2021/09/05 00:08:26;;;;;;;0.07;0.07;;;;;;;;;;10402511;28;20210;-72
2021/09/05 00:13:28;;;;;;;0.00;0.00;;;;;;;;;;10405334;28;20244;-69
2021/09/05 00:18:52;;;;;;;0.00;0.00;;;;;;;;;;10418340;28;20197;-72
2021/09/05 00:24:15;;;;;;;0.00;0.00;;;;;;;;;;10419188;28;20882;-70
2021/09/05 00:29:38;;;;;;;0.00;0.00;;;;;;;;;;10402447;28;20194;-71
2021/09/05 00:34:42;;;;;;;0.00;0.00;;;;;;;;;;10398658;28;20206;-69
2021/09/05 00:39:45;;;;;;;0.00;0.00;;;;;;;;;;10400268;28;20228;-71
2021/09/05 00:44:48;;;;;;;0.03;0.03;;;;;;;;;;10396184;28;20226;-71
2021/09/05 00:49:52;;;;;;;0.00;0.00;;;;;;;;;;10398967;28;20213;-69
2021/09/05 00:54:55;;;;;;;0.00;0.00;;;;;;;;;;10399402;28;20210;-71
2021/09/05 00:59:58;;;;;;;0.00;0.00;;;;;;;;;;10399921;28;20206;-71
2021/09/05 01:05:02;;;;;;;0.00;0.00;;;;;;;;;;10398541;28;20225;-71
2021/09/05 01:10:06;;;;;;;0.00;0.00;;;;;;;;;;10398786;28;20255;-71
2021/09/05 01:15:09;;;;;;;0.00;0.00;;;;;;;;;;10400983;28;20217;-71
2021/09/05 01:20:14;;;;;;;0.00;0.00;;;;;;;;;;10399474;28;20672;-71
2021/09/05 01:25:21;;;;;;;0.00;0.00;;;;;;;;;;10395606;28;20310;-70
2021/09/05 01:30:28;;;;;;;0.00;0.00;;;;;;;;;;10398244;28;20186;-70
2021/09/05 01:35:33;;;;;;;0.00;0.00;;;;;;;;;;10392274;28;20335;-71
2021/09/05 01:40:36;;;;;;;0.00;0.00;;;;;;;;;;10400995;28;20625;-72
2021/09/05 01:45:40;;;;;;;0.00;0.00;;;;;;;;;;10398418;28;20555;-71
2021/09/05 01:50:43;;;;;;;0.00;0.00;;;;;;;;;;10393172;28;20197;-69
2021/09/05 01:55:46;;;;;;;0.10;0.10;;;;;;;;;;10400825;28;20467;-70
2021/09/05 02:00:50;;;;;;;0.00;0.00;;;;;;;;;;10398243;28;20607;-71
2021/09/05 02:05:53;;;;;;;0.00;0.00;;;;;;;;;;10397533;28;20217;-70
2021/09/05 02:10:56;;;;;;;0.00;0.00;;;;;;;;;;10402850;28;20674;-70
2021/09/05 02:16:00;;;;;;;0.00;0.00;;;;;;;;;;10404304;28;20703;-71
2021/09/05 02:21:03;;;;;;;0.00;0.00;;;;;;;;;;10404465;28;20209;-71
2021/09/05 02:26:06;;;;;;;0.00;0.00;;;;;;;;;;10409314;28;20233;-70
2021/09/05 02:31:11;;;;;;;0.00;0.00;;;;;;;;;;10405262;28;20236;-71
2021/09/05 02:36:14;;;;;;;0.00;0.00;;;;;;;;;;10401187;28;20220;-70
2021/09/05 02:41:17;;;;;;;0.00;0.00;;;;;;;;;;10405106;28;20221;-70
2021/09/05 02:46:21;;;;;;;0.00;0.00;;;;;;;;;;10404725;28;20221;-71
2021/09/05 02:51:24;;;;;;;0.10;0.10;;;;;;;;;;10403259;28;20193;-71
2021/09/05 02:56:27;;;;;;;0.00;0.00;;;;;;;;;;10405134;28;20709;-71
2021/09/05 03:01:31;;;;;;;0.00;0.00;;;;;;;;;;10404649;28;20256;-69
2021/09/05 03:06:36;;;;;;;0.00;0.00;;;;;;;;;;10402561;28;20677;-72
2021/09/05 03:11:39;;;;;;;0.00;0.00;;;;;;;;;;10405750;28;20268;-70
2021/09/05 03:16:43;;;;;;;0.00;0.00;;;;;;;;;;10403212;28;20216;-71
2021/09/05 03:21:46;;;;;;;0.00;0.00;;;;;;;;;;10395018;28;20236;-71
2021/09/05 03:26:49;;;;;;;0.00;0.00;;;;;;;;;;10405492;28;20272;-72
2021/09/05 03:31:53;;;;;;;0.00;0.00;;;;;;;;;;10397975;28;20695;-70
2021/09/05 03:36:56;;;;;;;0.00;0.00;;;;;;;;;;10401995;28;20632;-70
2021/09/05 03:41:59;;;;;;;0.10;0.10;;;;;;;;;;10404636;28;20224;-73
2021/09/05 03:47:03;;;;;;;0.00;0.00;;;;;;;;;;10395441;28;20957;-71
2021/09/05 03:52:06;;;;;;;0.00;0.00;;;;;;;;;;10403275;28;20217;-71
2021/09/05 03:57:09;;;;;;;0.00;0.00;;;;;;;;;;10404710;28;20249;-71
2021/09/05 04:02:13;;;;;;;0.00;0.00;;;;;;;;;;10399882;28;20190;-69
2021/09/05 04:07:18;;;;;;;0.00;0.00;;;;;;;;;;10400923;28;20240;-71
2021/09/05 04:12:21;;;;;;;0.00;0.00;;;;;;;;;;10395506;28;20569;-71
2021/09/05 04:17:25;;;;;;;0.07;0.07;;;;;;;;;;10401951;28;20239;-71
2021/09/05 04:22:28;;;;;;;0.07;0.07;;;;;;;;;;10402300;28;20194;-69
2021/09/05 04:27:31;;;;;;;0.00;0.00;;;;;;;;;;10402728;28;20221;-70
2021/09/05 04:32:36;;;;;;;0.00;0.00;;;;;;;;;;10397694;28;20327;-70
2021/09/05 04:37:39;;;;;;;0.00;0.00;;;;;;;;;;10396029;28;20383;-71
2021/09/05 04:42:42;;;;;;;0.00;0.00;;;;;;;;;;10394816;28;21431;-68
2021/09/05 04:47:46;;;;;;;0.00;0.00;;;;;;;;;;10399349;28;20214;-71
2021/09/05 04:52:50;;;;;;;0.00;0.00;;;;;;;;;;10393973;28;20198;-72
2021/09/05 04:57:53;;;;;;;0.00;0.00;;;;;;;;;;10399278;28;20388;-72
2021/09/05 05:02:59;;;;;;;0.00;0.00;;;;;;;;;;10395175;28;20214;-72
2021/09/05 05:08:02;;;;;;;0.10;0.10;;;;;;;;;;10399800;28;20573;-71
2021/09/05 05:13:05;;;;;;;0.00;0.00;;;;;;;;;;10395884;28;20684;-71
2021/09/05 05:18:09;;;;;;;0.00;0.00;;;;;;;;;;10398601;28;20213;-72
2021/09/05 05:23:12;;;;;;;0.00;0.00;;;;;;;;;;10395353;28;20209;-72
2021/09/05 05:28:15;;;;;;;0.00;0.00;;;;;;;;;;10390901;28;20218;-71
2021/09/05 05:33:19;;;;;;;0.00;0.00;;;;;;;;;;10393084;28;20363;-69
2021/09/05 05:38:23;;;;;;;0.00;0.00;;;;;;;;;;10394057;28;20570;-71
2021/09/05 05:43:26;;;;;;;0.10;0.10;;;;;;;;;;10398960;28;20206;-70
2021/09/05 05:48:30;;;;;;;0.00;0.00;;;;;;;;;;10397384;28;20617;-69
2021/09/05 05:53:33;;;;;;;0.00;0.00;;;;;;;;;;10393054;28;20197;-70
2021/09/05 05:58:36;;;;;;;0.00;0.00;;;;;;;;;;10396247;28;20294;-69
2021/09/05 06:03:45;;;;;;;0.00;0.00;;;;;;;;;;10393768;28;20222;-72
2021/09/05 06:08:48;;;;;;;0.00;0.00;;;;;;;;;;10408781;28;20331;-70
2021/09/05 06:13:50;;;;;;;0.00;0.00;;;;;;;;;;10391414;28;20190;-72
2021/09/05 06:18:55;;;;;;;0.00;0.00;;;;;;;;;;10393864;28;20285;-68
2021/09/05 06:23:58;;;;;;;0.00;0.00;;;;;;;;;;10392627;28;20233;-71
2021/09/05 06:29:00;;;;;;;0.10;0.10;;;;;;;;;;10398703;28;20202;-70
2021/09/05 06:34:05;;;;;;;0.00;0.00;;;;;;;;;;10395475;28;20218;-71
2021/09/05 06:39:08;;;;;;;0.00;0.00;;;;;;;;;;10397158;28;20248;-71
2021/09/05 06:44:10;;;;;;;0.20;0.20;;;;;;;;;;10394755;28;20245;-71
2021/09/05 06:49:15;;;;;;;0.10;0.10;;;;;;;;;;10397532;28;20213;-67
2021/09/05 06:54:17;;;;;;;0.10;0.10;;;;;;;;;;10396382;28;20237;-70
2021/09/05 06:59:20;;;;;;;0.20;0.20;;;;;;;;;;10406714;28;20194;-71
2021/09/05 07:04:25;;;;;;;0.20;0.20;;;;;;;;;;10406847;28;20221;-72
2021/09/05 07:09:27;;;;;;;0.30;0.30;;;;;;;;;;10404984;28;20238;-70
2021/09/05 07:14:30;;;;;;;0.30;0.30;;;;;;;;;;10401432;28;20316;-69
2021/09/05 07:19:35;;;;;;;0.30;0.30;;;;;;;;;;10402538;28;20225;-69
2021/09/05 07:24:37;;;;;;;0.30;0.30;;;;;;;;;;10406324;28;20217;-70
2021/09/05 07:29:40;;;;;;;0.30;0.30;;;;;;;;;;10400001;28;20201;-72
2021/09/05 07:34:45;;;;;;;0.30;0.30;;;;;;;;;;10398640;28;20218;-70
2021/09/05 07:39:48;;;;;;;0.30;0.30;;;;;;;;;;10398132;28;20623;-71
2021/09/05 07:44:51;;;;;;;0.30;0.30;;;;;;;;;;10404436;28;20260;-70
2021/09/05 07:49:55;;;;;;;0.38;0.38;;;;;;;;;;10395595;28;20265;-71
2021/09/05 07:54:58;;;;;;;0.30;0.30;;;;;;;;;;10397946;28;20237;-71
2021/09/05 08:00:01;;;;;;;0.40;0.40;;;;;;;;;;10398810;28;20848;-71
2021/09/05 08:05:06;;;;;;;0.32;0.32;;;;;;;;;;10396983;28;20226;-71
2021/09/05 08:10:10;;;;;;;0.40;0.40;;;;;;;;;;10396817;28;20264;-72
2021/09/05 08:15:14;;;;;;;0.43;0.43;;;;;;;;;;10398369;28;20244;-72
2021/09/05 08:20:18;;;;;;;0.50;0.50;;;;;;;;;;10393772;28;20200;-72
2021/09/05 08:25:21;;;;;;;0.60;0.60;;;;;;;;;;10395391;28;20586;-72
2021/09/05 08:30:24;;;;;;;0.60;0.60;;;;;;;;;;10399089;28;20238;-72
2021/09/05 08:35:28;;;;;;;0.70;0.70;;;;;;;;;;10399806;28;20670;-72
2021/09/05 08:40:31;;;;;;;0.60;0.60;;;;;;;;;;10402555;28;20205;-72
2021/09/05 08:45:34;;;;;;;0.70;0.70;;;;;;;;;;10397962;28;20903;-72
2021/09/05 08:50:39;;;;;;;0.70;0.70;;;;;;;;;;10401224;28;20189;-73
2021/09/05 08:55:42;;;;;;;0.80;0.80;;;;;;;;;;10397265;28;20274;-72
2021/09/05 09:00:46;;;;;;;0.90;0.90;;;;;;;;;;10399675;28;20248;-73
2021/09/05 09:05:52;;;;;;;0.90;0.90;;;;;;;;;;10394758;28;20221;-72
2021/09/05 09:10:57;;;;;;;0.90;0.90;;;;;;;;;;10400998;28;20216;-71
2021/09/05 09:16:05;;;;;;;0.90;0.90;;;;;;;;;;10392946;28;20259;-72
2021/09/05 09:21:10;;;;;;;0.90;0.90;;;;;;;;;;10396910;28;20228;-72
2021/09/05 09:26:14;;;;;;;0.90;0.90;;;;;;;;;;10394273;28;20210;-71
2021/09/05 09:31:20;;;;;;;1.00;1.00;;;;;;;;;;10401828;28;20266;-72
2021/09/05 09:36:25;;;;;;;0.90;0.90;;;;;;;;;;10389584;28;20689;-73
2021/09/05 09:41:28;;;;;;;0.90;0.90;;;;;;;;;;10393758;28;20201;-70
2021/09/05 09:46:32;;;;;;;1.10;1.10;;;;;;;;;;10397581;28;20221;-71
2021/09/05 09:51:36;;;;;;;1.00;1.00;;;;;;;;;;10390999;28;20221;-71
2021/09/05 09:56:39;;;;;;;1.00;1.00;;;;;;;;;;10400871;28;20233;-68
2021/09/05 10:01:44;;;;;;;1.00;1.00;;;;;;;;;;10396485;28;20201;-68
2021/09/05 10:06:49;;;;;;;0.90;0.90;;;;;;;;;;10395621;28;20364;-73
2021/09/05 10:11:52;;;;;;;0.85;0.85;;;;;;;;;;10412725;28;20242;-72
2021/09/05 10:16:55;;;;;;;0.90;0.90;;;;;;;;;;10393969;28;20549;-72
2021/09/05 10:21:59;;;;;;;0.80;0.80;;;;;;;;;;10392853;28;20650;-71
2021/09/05 10:27:03;;;;;;;0.88;0.88;;;;;;;;;;10401580;28;20228;-70
2021/09/05 10:32:06;;;;;;;0.90;0.90;;;;;;;;;;10402922;28;20189;-72
2021/09/05 10:37:11;;;;;;;0.90;0.90;;;;;;;;;;10405378;28;20628;-72
2021/09/05 10:42:23;;;;;;;0.90;0.90;;;;;;;;;;10409375;28;20276;-70
2021/09/05 10:47:43;;;;;;;0.90;0.90;;;;;;;;;;10406352;28;20224;-70
2021/09/05 10:52:47;;;;;;;0.90;0.90;;;;;;;;;;10403200;28;20604;-71
2021/09/05 10:58:00;;;;;;;0.90;0.90;;;;;;;;;;10402824;28;20278;-69
2021/09/05 11:03:07;;;;;;;1.00;1.00;;;;;;;;;;10407005;28;20548;-71
2021/09/05 11:08:24;;;;;;;0.90;0.90;;;;;;;;;;10405496;28;20218;-72
2021/09/05 11:13:46;;;;;;;0.80;0.80;;;;;;;;;;10405866;28;20339;-71
2021/09/05 11:18:50;;;;;;;0.90;0.90;;;;;;;;;;10396183;28;20189;-69
2021/09/05 11:23:55;;;;;;;0.90;0.90;;;;;;;;;;10407010;28;20206;-71
2021/09/05 11:28:57;;;;;;;0.90;0.90;;;;;;;;;;10400916;28;20217;-71
2021/09/05 11:34:07;;;;;;;0.90;0.90;;;;;;;;;;10388986;28;20296;-71
2021/09/05 11:39:11;;;;;;;0.90;0.90;;;;;;;;;;10401975;28;20225;-73
2021/09/05 11:44:14;;;;;;;0.90;0.90;;;;;;;;;;10399052;28;20225;-71
2021/09/05 11:49:16;;;;;;;0.80;0.80;;;;;;;;;;10400230;28;20303;-69
2021/09/05 11:54:20;;;;;;;0.80;0.80;;;;;;;;;;10403080;28;20209;-73
2021/09/05 11:59:23;;;;;;;0.90;0.90;;;;;;;;;;10396338;28;20190;-70
2021/09/05 12:04:26;;;;;;;0.70;0.70;;;;;;;;;;10389987;28;20241;-73
2021/09/05 12:09:32;;;;;;;0.80;0.80;;;;;;;;;;10391105;28;20236;-72
2021/09/05 12:14:35;;;;;;;0.40;0.40;;;;;;;;;;10399701;28;20697;-73
2021/09/05 12:19:53;;;;;;;0.80;0.80;;;;;;;;;;10386991;28;20216;-71
2021/09/05 12:24:58;;;;;;;0.77;0.77;;;;;;;;;;10401561;28;20217;-71
2021/09/05 12:30:21;;;;;;;0.60;0.60;;;;;;;;;;10400114;28;20189;-71
2021/09/05 12:35:28;;;;;;;0.70;0.70;;;;;;;;;;10395289;28;20248;-70
2021/09/05 12:40:36;;;;;;;0.70;0.70;;;;;;;;;;10402368;28;20189;-71
2021/09/05 12:45:40;;;;;;;0.70;0.70;;;;;;;;;;10400823;28;20218;-71
2021/09/05 12:50:43;;;;;;;0.60;0.60;;;;;;;;;;10399578;28;20575;-70
2021/09/05 12:55:47;;;;;;;0.60;0.60;;;;;;;;;;10401317;28;20276;-72
2021/09/05 13:00:50;;;;;;;0.63;0.63;;;;;;;;;;10395671;28;20661;-72
2021/09/05 13:05:53;;;;;;;0.60;0.60;;;;;;;;;;10396619;28;20593;-72
2021/09/05 13:10:58;;;;;;;0.30;0.30;;;;;;;;;;10398081;28;20194;-71
2021/09/05 13:16:01;;;;;;;0.50;0.50;;;;;;;;;;10400207;28;20319;-72
2021/09/05 13:21:05;;;;;;;0.50;0.50;;;;;;;;;;10398998;28;20197;-71
2021/09/05 13:26:10;;;;;;;0.50;0.50;;;;;;;;;;10399730;28;20221;-73
2021/09/05 13:31:13;;;;;;;0.50;0.50;;;;;;;;;;10400108;28;20273;-72
2021/09/05 13:36:16;;;;;;;0.50;0.50;;;;;;;;;;10398389;28;20296;-71
2021/09/05 13:41:22;;;;;;;0.50;0.50;;;;;;;;;;10401481;28;20672;-71
2021/09/05 13:46:25;;;;;;;0.40;0.40;;;;;;;;;;10400882;28;20237;-72
2021/09/05 13:51:28;;;;;;;0.47;0.47;;;;;;;;;;10399021;28;20189;-71
2021/09/05 13:56:32;;;;;;;0.43;0.43;;;;;;;;;;10398250;28;20210;-72
2021/09/05 14:01:35;;;;;;;0.50;0.50;;;;;;;;;;10398176;28;20194;-72
2021/09/05 14:06:38;;;;;;;0.40;0.40;;;;;;;;;;10393924;28;20213;-72
2021/09/05 14:11:46;;;;;;;0.40;0.40;;;;;;;;;;10400316;28;20642;-72
2021/09/05 14:16:49;;;;;;;0.30;0.30;;;;;;;;;;10399625;28;20221;-71
2021/09/05 14:21:52;;;;;;;0.30;0.30;;;;;;;;;;10391077;28;20197;-73
2021/09/05 14:26:59;;;;;;;0.20;0.20;;;;;;;;;;10401390;28;20617;-69
2021/09/05 14:32:06;;;;;;;0.30;0.30;;;;;;;;;;10399138;28;20574;-71
2021/09/05 14:48:01;;;;;;;0.30;0.30;;;;;;;;;;10394588;28;20209;-72
2021/09/05 14:58:31;;;;;;;0.20;0.20;;;;;;;;;;10377409;28;20229;-70
2021/09/05 15:03:42;;;;;;;0.20;0.20;;;;;;;;;;10395174;28;20624;-70
2021/09/05 15:14:07;;;;;;;0.20;0.20;;;;;;;;;;10390445;28;20248;-71
2021/09/05 15:19:09;;;;;;;0.20;0.20;;;;;;;;;;10404665;28;20256;-71
2021/09/05 15:24:12;;;;;;;0.20;0.20;;;;;;;;;;10402690;28;20231;-71
2021/09/05 15:29:34;;;;;;;0.20;0.20;;;;;;;;;;10403602;28;20210;-69
2021/09/05 15:35:01;;;;;;;0.20;0.20;;;;;;;;;;10399669;28;20550;-70
2021/09/05 15:56:10;;;;;;;0.20;0.20;;;;;;;;;;10388644;28;20641;-70
2021/09/05 16:01:21;;;;;;;0.20;0.20;;;;;;;;;;10395161;28;20633;-70
2021/09/05 16:17:08;;;;;;;0.15;0.15;;;;;;;;;;10401532;28;20674;-71
2021/09/05 16:22:12;;;;;;;0.20;0.20;;;;;;;;;;10397406;28;20493;-70
2021/09/05 16:27:21;;;;;;;0.20;0.20;;;;;;;;;;10400927;28;20626;-70
2021/09/05 16:32:35;;;;;;;0.20;0.20;;;;;;;;;;10400270;28;20186;-71
2021/09/05 16:37:51;;;;;;;0.20;0.20;;;;;;;;;;10397826;28;20222;-70
2021/09/05 16:42:54;;;;;;;0.10;0.10;;;;;;;;;;10422812;28;20224;-71
2021/09/05 16:48:00;;;;;;;0.10;0.10;;;;;;;;;;10402860;28;20259;-70
2021/09/05 16:53:02;;;;;;;0.10;0.10;;;;;;;;;;10396518;28;20205;-70
2021/09/05 16:58:06;;;;;;;0.10;0.10;;;;;;;;;;10392855;28;20638;-71
2021/09/05 17:03:10;;;;;;;0.10;0.10;;;;;;;;;;10383176;28;20218;-71
2021/09/05 17:08:14;;;;;;;0.20;0.20;;;;;;;;;;10403353;28;20239;-71
2021/09/05 17:13:16;;;;;;;0.10;0.10;;;;;;;;;;10399159;28;20240;-70
2021/09/05 17:18:20;;;;;;;0.20;0.20;;;;;;;;;;10399914;28;20580;-71
2021/09/05 17:23:23;;;;;;;0.10;0.10;;;;;;;;;;10396988;28;20193;-71
2021/09/05 17:28:26;;;;;;;0.10;0.10;;;;;;;;;;10402994;28;20275;-71
2021/09/05 17:33:30;;;;;;;0.10;0.10;;;;;;;;;;10395277;28;20650;-69
2021/09/05 17:38:33;;;;;;;0.10;0.10;;;;;;;;;;10398801;28;20225;-70
2021/09/05 17:43:37;;;;;;;0.10;0.10;;;;;;;;;;10397761;28;20591;-70
2021/09/05 17:48:41;;;;;;;0.10;0.10;;;;;;;;;;10392116;28;20213;-68
2021/09/05 17:53:44;;;;;;;0.10;0.10;;;;;;;;;;10400413;28;20547;-70
2021/09/05 17:58:47;;;;;;;0.10;0.10;;;;;;;;;;10402151;28;20861;-71
2021/09/05 18:03:51;;;;;;;0.10;0.10;;;;;;;;;;10396794;28;20197;-71
2021/09/05 18:08:54;;;;;;;0.10;0.10;;;;;;;;;;10399272;28;20202;-69
2021/09/05 18:13:57;;;;;;;0.10;0.10;;;;;;;;;;10401165;28;20217;-70
2021/09/05 18:19:03;;;;;;;0.10;0.10;;;;;;;;;;10398443;28;20213;-71
2021/09/05 18:24:06;;;;;;;0.10;0.10;;;;;;;;;;10398619;28;20264;-70
2021/09/05 18:29:08;;;;;;;0.10;0.10;;;;;;;;;;10389053;28;20230;-71
2021/09/05 18:34:33;;;;;;;0.10;0.10;;;;;;;;;;10394904;28;20217;-71
2021/09/05 18:39:36;;;;;;;0.10;0.10;;;;;;;;;;10392444;28;20230;-71
2021/09/05 18:44:39;;;;;;;0.10;0.10;;;;;;;;;;10391232;28;20212;-69
2021/09/05 18:49:43;;;;;;;0.10;0.10;;;;;;;;;;10403027;28;20198;-69
2021/09/05 18:54:46;;;;;;;0.10;0.10;;;;;;;;;;10389507;28;20276;-70
2021/09/05 18:59:49;;;;;;;0.00;0.00;;;;;;;;;;10409057;28;20255;-72
2021/09/05 19:04:53;;;;;;;0.10;0.10;;;;;;;;;;10401705;28;20221;-71
2021/09/05 19:09:56;;;;;;;0.10;0.10;;;;;;;;;;10401086;28;20805;-72
2021/09/05 19:14:59;;;;;;;0.10;0.10;;;;;;;;;;10402523;28;20209;-69
2021/09/05 19:20:03;;;;;;;0.00;0.00;;;;;;;;;;10406852;28;20201;-72
2021/09/05 19:25:07;;;;;;;0.10;0.10;;;;;;;;;;10393571;28;20669;-70
2021/09/05 19:30:10;;;;;;;0.10;0.10;;;;;;;;;;10397152;28;20209;-72
2021/09/05 19:35:15;;;;;;;0.10;0.10;;;;;;;;;;10411570;28;20225;-71
2021/09/05 19:40:17;;;;;;;0.10;0.10;;;;;;;;;;10403750;28;20197;-72
2021/09/05 19:45:20;;;;;;;0.10;0.10;;;;;;;;;;10402516;28;20214;-70
2021/09/05 19:50:25;;;;;;;0.10;0.10;;;;;;;;;;10405086;28;20242;-71
2021/09/05 19:55:28;;;;;;;0.00;0.00;;;;;;;;;;10396737;28;20530;-72
2021/09/05 20:00:31;;;;;;;0.00;0.00;;;;;;;;;;10402093;28;20178;-70
2021/09/05 20:05:36;;;;;;;0.00;0.00;;;;;;;;;;10402715;28;20300;-71
2021/09/05 20:10:39;;;;;;;0.10;0.10;;;;;;;;;;10401695;28;20566;-70
2021/09/05 20:15:42;;;;;;;0.10;0.10;;;;;;;;;;10404317;28;20217;-71
2021/09/05 20:20:46;;;;;;;0.10;0.10;;;;;;;;;;10400680;28;20190;-72
2021/09/05 20:25:49;;;;;;;0.00;0.00;;;;;;;;;;10400238;28;20209;-72
2021/09/05 20:30:52;;;;;;;0.10;0.10;;;;;;;;;;10401422;28;20213;-72
2021/09/05 20:35:56;;;;;;;0.10;0.10;;;;;;;;;;10397693;28;20221;-71
2021/09/05 20:40:59;;;;;;;0.10;0.10;;;;;;;;;;10397538;28;20186;-69
2021/09/05 20:46:02;;;;;;;0.10;0.10;;;;;;;;;;10401530;28;20566;-71
2021/09/05 20:51:06;;;;;;;0.10;0.10;;;;;;;;;;10400542;28;20313;-72
2021/09/05 20:56:09;;;;;;;0.10;0.10;;;;;;;;;;10401483;28;20214;-72
2021/09/05 21:01:12;;;;;;;0.10;0.10;;;;;;;;;;10397133;28;20192;-69
2021/09/05 21:06:17;;;;;;;0.10;0.10;;;;;;;;;;10398920;28;20213;-70
2021/09/05 21:11:19;;;;;;;0.00;0.00;;;;;;;;;;10402100;28;20585;-68
2021/09/05 21:16:22;;;;;;;0.00;0.00;;;;;;;;;;10397735;28;20225;-72
2021/09/05 21:21:26;;;;;;;0.00;0.00;;;;;;;;;;10400377;28;20188;-71
2021/09/05 21:26:29;;;;;;;0.00;0.00;;;;;;;;;;10395450;28;20555;-71
2021/09/05 21:31:32;;;;;;;0.00;0.00;;;;;;;;;;10400554;28;20534;-71
2021/09/05 21:36:36;;;;;;;0.10;0.10;;;;;;;;;;10400138;28;20564;-70
2021/09/05 21:41:39;;;;;;;0.00;0.00;;;;;;;;;;10393677;28;20240;-71
2021/09/05 21:46:42;;;;;;;0.10;0.10;;;;;;;;;;10394353;28;20210;-71
2021/09/05 21:51:46;;;;;;;0.00;0.00;;;;;;;;;;10392666;28;20205;-72
2021/09/05 21:56:49;;;;;;;0.00;0.00;;;;;;;;;;10402638;28;20421;-70
2021/09/05 22:01:52;;;;;;;0.10;0.10;;;;;;;;;;10402491;28;20194;-71
2021/09/05 22:06:57;;;;;;;0.10;0.10;;;;;;;;;;10397913;28;20225;-69
2021/09/05 22:12:00;;;;;;;0.03;0.03;;;;;;;;;;10401506;28;20537;-72
2021/09/05 22:17:03;;;;;;;0.00;0.00;;;;;;;;;;10401207;28;20240;-71
2021/09/05 22:22:07;;;;;;;0.00;0.00;;;;;;;;;;10395716;28;20280;-71
2021/09/05 22:27:10;;;;;;;0.00;0.00;;;;;;;;;;10400155;28;20546;-72
2021/09/05 22:32:13;;;;;;;0.10;0.10;;;;;;;;;;10406072;28;20715;-71
2021/09/05 22:37:21;;;;;;;0.10;0.10;;;;;;;;;;10404673;28;20291;-68
2021/09/05 22:42:24;;;;;;;0.00;0.00;;;;;;;;;;10406888;28;20190;-71
2021/09/05 22:47:26;;;;;;;0.00;0.00;;;;;;;;;;10404436;28;20233;-69
2021/09/05 22:52:31;;;;;;;0.10;0.10;;;;;;;;;;10399091;28;20753;-69
2021/09/05 22:57:34;;;;;;;0.00;0.00;;;;;;;;;;10406015;28;20677;-70
2021/09/05 23:02:39;;;;;;;0.03;0.03;;;;;;;;;;10398807;28;20194;-70
2021/09/05 23:07:45;;;;;;;0.00;0.00;;;;;;;;;;10404042;28;20252;-71
2021/09/05 23:12:48;;;;;;;0.10;0.10;;;;;;;;;;10407289;28;20221;-71
2021/09/05 23:17:51;;;;;;;0.10;0.10;;;;;;;;;;10406837;28;20653;-72
2021/09/05 23:22:55;;;;;;;0.00;0.00;;;;;;;;;;10403537;28;20281;-71
2021/09/05 23:27:59;;;;;;;0.00;0.00;;;;;;;;;;10404089;28;20293;-71
2021/09/05 23:33:01;;;;;;;0.00;0.00;;;;;;;;;;10396118;28;20388;-69
2021/09/05 23:38:06;;;;;;;0.00;0.00;;;;;;;;;;10403650;28;20226;-70
2021/09/05 23:43:09;;;;;;;0.07;0.07;;;;;;;;;;10402379;28;20198;-71
2021/09/05 23:48:13;;;;;;;0.00;0.00;;;;;;;;;;10403060;28;20290;-70
2021/09/05 23:53:17;;;;;;;0.00;0.00;;;;;;;;;;10404689;28;20244;-70
2021/09/05 23:58:20;;;;;;;0.00;0.00;;;;;;;;;;10405882;28;20213;-72
